createdAt,value
2018-02-23T00:00:19.625Z,67.88
2018-02-23T00:01:19.939Z,67.79
2018-02-23T00:02:20.253Z,67.60
2018-02-23T00:03:20.571Z,66.47
2018-02-23T00:04:20.939Z,65.99
2018-02-23T00:05:21.216Z,67.22
2018-02-23T00:06:21.537Z,68.26
2018-02-23T00:07:21.853Z,68.54
2018-02-23T00:08:22.162Z,68.82
2018-02-23T00:09:22.469Z,68.82
2018-02-23T00:10:22.798Z,68.82
2018-02-23T00:11:23.118Z,69.30
2018-02-23T00:12:23.436Z,68.73
2018-02-23T00:13:23.758Z,68.44
2018-02-23T00:14:24.078Z,68.26
2018-02-23T00:15:24.408Z,68.16
2018-02-23T00:16:24.516Z,68.82
2018-02-23T00:17:24.836Z,68.63
2018-02-23T00:18:25.156Z,67.41
2018-02-23T00:19:25.476Z,66.65
2018-02-23T00:20:25.795Z,66.75
2018-02-23T00:21:26.130Z,67.69
2018-02-23T00:22:26.433Z,67.79
2018-02-23T00:23:26.755Z,68.44
2018-02-23T00:24:27.065Z,68.73
2018-02-23T00:25:27.438Z,68.63
2018-02-23T00:26:27.699Z,68.73
2018-02-23T00:27:28.007Z,67.88
2018-02-23T00:28:28.328Z,68.63
2018-02-23T00:29:28.638Z,68.63
2018-02-23T00:30:28.949Z,68.73
2018-02-23T00:31:29.271Z,67.79
2018-02-23T00:32:29.587Z,68.44
2018-02-23T00:33:29.892Z,69.20
2018-02-23T00:34:30.216Z,68.63
2018-02-23T00:35:30.536Z,67.41
2018-02-23T00:36:30.859Z,66.65
2018-02-23T00:37:31.178Z,67.50
2018-02-23T00:38:31.497Z,67.50
2018-02-23T00:39:31.818Z,67.32
2018-02-23T00:40:32.141Z,67.88
2018-02-23T00:41:32.457Z,67.60
2018-02-23T00:42:32.776Z,68.26
2018-02-23T00:43:33.102Z,68.35
2018-02-23T00:44:33.216Z,68.35
2018-02-23T00:45:33.323Z,67.79
2018-02-23T00:46:33.642Z,67.03
2018-02-23T00:47:33.961Z,67.13
2018-02-23T00:48:34.280Z,66.65
2018-02-23T00:49:34.600Z,67.32
2018-02-23T00:50:34.922Z,67.41
2018-02-23T00:51:35.245Z,67.03
2018-02-23T00:52:35.560Z,68.16
2018-02-23T00:53:35.872Z,69.11
2018-02-23T00:54:36.186Z,68.07
2018-02-23T00:55:36.500Z,67.79
2018-02-23T00:56:36.816Z,67.50
2018-02-23T00:57:37.143Z,67.22
2018-02-23T00:58:37.446Z,67.60
2018-02-23T00:59:37.758Z,67.60
2018-02-23T01:00:38.076Z,68.16
2018-02-23T01:01:38.389Z,67.97
2018-02-23T01:02:38.716Z,67.13
2018-02-23T01:03:39.033Z,67.13
2018-02-23T01:04:39.352Z,66.94
2018-02-23T01:05:39.671Z,67.13
2018-02-23T01:06:39.992Z,67.50
2018-02-23T01:07:40.313Z,67.50
2018-02-23T01:08:40.631Z,67.32
2018-02-23T01:09:40.947Z,67.50
2018-02-23T01:10:41.270Z,67.60
2018-02-23T01:11:41.604Z,67.13
2018-02-23T01:12:41.715Z,66.47
2018-02-23T01:13:41.864Z,66.75
2018-02-23T01:14:41.972Z,66.84
2018-02-23T01:15:42.284Z,66.37
2018-02-23T01:16:42.606Z,64.67
2018-02-23T01:17:42.922Z,65.33
2018-02-23T01:18:43.242Z,65.52
2018-02-23T01:19:43.559Z,64.95
2018-02-23T01:20:43.880Z,65.61
2018-02-23T01:21:44.197Z,66.56
2018-02-23T01:22:44.519Z,67.88
2018-02-23T01:23:44.838Z,67.41
2018-02-23T01:24:45.158Z,67.13
2018-02-23T01:25:45.486Z,66.18
2018-02-23T01:26:45.597Z,65.99
2018-02-23T01:27:45.711Z,66.18
2018-02-23T01:28:45.818Z,65.14
2018-02-23T01:29:46.138Z,65.33
2018-02-23T01:30:46.458Z,64.95
2018-02-23T01:31:46.778Z,64.86
2018-02-23T01:32:47.097Z,65.71
2018-02-23T01:33:47.423Z,64.39
2018-02-23T01:34:47.737Z,64.20
2018-02-23T01:35:48.049Z,63.82
2018-02-23T01:36:48.375Z,63.82
2018-02-23T01:37:48.683Z,64.67
2018-02-23T01:38:48.992Z,63.63
2018-02-23T01:39:49.306Z,63.54
2018-02-23T01:40:49.622Z,64.67
2018-02-23T01:41:49.937Z,63.73
2018-02-23T01:42:50.256Z,63.54
2018-02-23T01:43:50.565Z,64.67
2018-02-23T01:44:50.878Z,65.52
2018-02-23T01:45:51.204Z,64.39
2018-02-23T01:46:51.515Z,65.61
2018-02-23T01:47:51.826Z,64.86
2018-02-23T01:48:52.147Z,64.76
2018-02-23T01:49:52.455Z,64.48
2018-02-23T01:50:52.776Z,64.29
2018-02-23T01:51:53.094Z,64.29
2018-02-23T01:52:53.416Z,63.63
2018-02-23T01:53:53.523Z,64.29
2018-02-23T01:54:53.843Z,64.67
2018-02-23T01:55:54.163Z,64.95
2018-02-23T01:56:54.482Z,62.50
2018-02-23T01:57:54.801Z,62.31
2018-02-23T01:58:55.122Z,62.40
2018-02-23T01:59:55.442Z,63.35
2018-02-23T02:00:55.772Z,63.63
2018-02-23T02:01:55.879Z,63.54
2018-02-23T02:02:56.199Z,62.88
2018-02-23T02:03:56.517Z,63.07
2018-02-23T02:04:56.839Z,62.59
2018-02-23T02:05:57.153Z,62.21
2018-02-23T02:06:57.473Z,62.31
2018-02-23T02:07:57.793Z,62.12
2018-02-23T02:08:58.117Z,62.50
2018-02-23T02:09:58.440Z,63.16
2018-02-23T02:10:58.745Z,62.50
2018-02-23T02:11:59.061Z,62.40
2018-02-23T02:12:59.380Z,62.02
2018-02-23T02:13:59.722Z,61.84
2018-02-23T02:15:00.007Z,63.07
2018-02-23T02:16:00.318Z,63.45
2018-02-23T02:17:00.634Z,63.26
2018-02-23T02:18:00.953Z,63.16
2018-02-23T02:19:01.062Z,62.97
2018-02-23T02:20:01.376Z,63.63
2018-02-23T02:21:01.684Z,63.63
2018-02-23T02:22:01.999Z,62.97
2018-02-23T02:23:02.315Z,63.35
2018-02-23T02:24:02.631Z,63.82
2018-02-23T02:25:02.955Z,63.82
2018-02-23T02:26:03.274Z,64.67
2018-02-23T02:27:03.593Z,63.92
2018-02-23T02:28:03.912Z,63.63
2018-02-23T02:29:04.231Z,62.88
2018-02-23T02:30:04.552Z,63.07
2018-02-23T02:31:04.873Z,63.35
2018-02-23T02:32:05.192Z,64.01
2018-02-23T02:33:05.525Z,62.97
2018-02-23T02:34:05.634Z,62.50
2018-02-23T02:35:05.952Z,62.50
2018-02-23T02:36:06.272Z,62.12
2018-02-23T02:37:06.591Z,62.50
2018-02-23T02:38:06.909Z,62.50
2018-02-23T02:39:07.231Z,63.16
2018-02-23T02:40:07.552Z,63.07
2018-02-23T02:41:07.882Z,63.82
2018-02-23T02:42:08.181Z,62.97
2018-02-23T02:43:08.497Z,63.26
2018-02-23T02:44:08.811Z,63.63
2018-02-23T02:45:09.127Z,64.20
2018-02-23T02:46:09.441Z,64.86
2018-02-23T02:47:09.761Z,64.48
2018-02-23T02:48:09.867Z,63.45
2018-02-23T02:49:10.215Z,63.73
2018-02-23T02:50:10.322Z,62.97
2018-02-23T02:51:10.641Z,62.40
2018-02-23T02:52:10.960Z,62.12
2018-02-23T02:53:11.281Z,62.59
2018-02-23T02:54:11.600Z,62.69
2018-02-23T02:55:11.927Z,63.45
2018-02-23T02:56:12.042Z,62.50
2018-02-23T02:57:12.156Z,63.16
2018-02-23T02:58:12.255Z,63.16
2018-02-23T02:59:12.576Z,63.82
2018-02-23T03:00:12.896Z,64.29
2018-02-23T03:01:13.211Z,64.29
2018-02-23T03:02:13.528Z,63.63
2018-02-23T03:03:13.852Z,64.76
2018-02-23T03:04:14.169Z,64.11
2018-02-23T03:05:14.494Z,64.39
2018-02-23T03:06:14.797Z,64.11
2018-02-23T03:07:15.120Z,64.76
2018-02-23T03:08:15.435Z,64.29
2018-02-23T03:09:15.750Z,62.97
2018-02-23T03:10:16.062Z,63.35
2018-02-23T03:11:16.377Z,63.54
2018-02-23T03:12:16.704Z,63.82
2018-02-23T03:13:16.986Z,64.20
2018-02-23T03:14:17.306Z,63.35
2018-02-23T03:15:17.626Z,62.97
2018-02-23T03:16:17.947Z,63.26
2018-02-23T03:17:18.265Z,63.35
2018-02-23T03:18:18.577Z,63.32
2018-02-23T03:19:18.891Z,64.48
2018-02-23T03:20:19.205Z,64.86
2018-02-23T03:21:19.526Z,65.42
2018-02-23T03:22:19.837Z,64.01
2018-02-23T03:23:20.158Z,64.39
2018-02-23T03:24:20.468Z,64.48
2018-02-23T03:25:20.776Z,64.48
2018-02-23T03:26:21.096Z,65.23
2018-02-23T03:27:21.408Z,64.95
2018-02-23T03:28:21.723Z,65.23
2018-02-23T03:29:22.037Z,64.76
2018-02-23T03:30:22.358Z,64.11
2018-02-23T03:31:22.664Z,63.82
2018-02-23T03:32:22.977Z,63.82
2018-02-23T03:33:23.293Z,64.11
2018-02-23T03:34:23.608Z,64.67
2018-02-23T03:35:23.922Z,64.95
2018-02-23T03:36:24.235Z,64.39
2018-02-23T03:37:24.551Z,64.29
2018-02-23T03:38:24.864Z,64.95
2018-02-23T03:39:25.178Z,64.29
2018-02-23T03:40:25.504Z,65.05
2018-02-23T03:41:25.813Z,64.39
2018-02-23T03:42:26.121Z,64.73
2018-02-23T03:43:26.437Z,64.83
2018-02-23T03:44:26.751Z,65.33
2018-02-23T03:45:27.065Z,65.33
2018-02-23T03:46:27.378Z,65.61
2018-02-23T03:47:27.698Z,65.14
2018-02-23T03:48:28.008Z,65.42
2018-02-23T03:49:28.323Z,65.14
2018-02-23T03:50:28.636Z,65.05
2018-02-23T03:51:28.969Z,65.86
2018-02-23T03:52:29.265Z,65.52
2018-02-23T03:53:29.578Z,65.48
2018-02-23T03:54:29.894Z,65.30
2018-02-23T03:55:30.207Z,65.58
2018-02-23T03:56:30.535Z,66.18
2018-02-23T03:57:30.836Z,66.37
2018-02-23T03:58:31.151Z,65.86
2018-02-23T03:59:31.489Z,65.30
2018-02-23T04:00:31.629Z,66.15
2018-02-23T04:01:31.919Z,66.52
2018-02-23T04:02:32.238Z,65.48
2018-02-23T04:03:32.594Z,65.58
2018-02-23T04:04:32.700Z,66.05
2018-02-23T04:05:33.020Z,66.62
2018-02-23T04:06:33.338Z,65.86
2018-02-23T04:07:33.657Z,65.86
2018-02-23T04:08:33.976Z,65.30
2018-02-23T04:09:34.309Z,65.67
2018-02-23T04:10:34.614Z,66.05
2018-02-23T04:11:34.930Z,66.52
2018-02-23T04:12:35.249Z,65.96
2018-02-23T04:13:35.559Z,65.77
2018-02-23T04:14:35.874Z,67.28
2018-02-23T04:15:36.196Z,66.52
2018-02-23T04:16:36.502Z,66.71
2018-02-23T04:17:36.815Z,66.24
2018-02-23T04:18:37.131Z,66.24
2018-02-23T04:19:37.443Z,66.62
2018-02-23T04:20:37.773Z,67.19
2018-02-23T04:21:38.073Z,66.05
2018-02-23T04:22:38.399Z,65.86
2018-02-23T04:23:38.708Z,65.77
2018-02-23T04:24:39.041Z,66.15
2018-02-23T04:25:39.147Z,66.71
2018-02-23T04:26:39.463Z,66.71
2018-02-23T04:27:39.783Z,67.19
2018-02-23T04:28:39.893Z,66.62
2018-02-23T04:29:40.211Z,66.62
2018-02-23T04:30:40.531Z,66.81
2018-02-23T04:31:40.850Z,66.81
2018-02-23T04:32:41.170Z,66.24
2018-02-23T04:33:41.501Z,65.96
2018-02-23T04:34:41.611Z,66.34
2018-02-23T04:35:41.738Z,66.81
2018-02-23T04:36:41.843Z,67.38
2018-02-23T04:37:42.161Z,67.38
2018-02-23T04:38:42.480Z,67.38
2018-02-23T04:39:42.813Z,67.00
2018-02-23T04:40:42.922Z,67.09
2018-02-23T04:41:43.234Z,67.19
2018-02-23T04:42:43.546Z,66.43
2018-02-23T04:43:43.865Z,67.28
2018-02-23T04:44:44.179Z,67.66
2018-02-23T04:45:44.500Z,67.57
2018-02-23T04:46:44.607Z,67.09
2018-02-23T04:47:44.920Z,66.62
2018-02-23T04:48:45.239Z,66.90
2018-02-23T04:49:45.566Z,67.66
2018-02-23T04:50:45.885Z,68.23
2018-02-23T04:51:46.210Z,68.60
2018-02-23T04:52:46.326Z,68.04
2018-02-23T04:53:46.430Z,67.19
2018-02-23T04:54:46.754Z,67.09
2018-02-23T04:55:47.071Z,67.57
2018-02-23T04:56:47.398Z,67.75
2018-02-23T04:57:47.520Z,67.57
2018-02-23T04:58:47.628Z,67.47
2018-02-23T04:59:47.948Z,67.66
2018-02-23T05:00:48.265Z,68.32
2018-02-23T05:01:48.584Z,67.75
2018-02-23T05:02:48.904Z,67.57
2018-02-23T05:03:49.231Z,67.47
2018-02-23T05:04:49.542Z,68.32
2018-02-23T05:05:49.862Z,68.13
2018-02-23T05:06:50.174Z,68.23
2018-02-23T05:07:50.489Z,68.23
2018-02-23T05:08:50.800Z,67.75
2018-02-23T05:09:51.124Z,67.28
2018-02-23T05:10:51.465Z,67.00
2018-02-23T05:11:51.748Z,67.09
2018-02-23T05:12:52.058Z,67.57
2018-02-23T05:13:52.377Z,67.19
2018-02-23T05:14:52.688Z,67.85
2018-02-23T05:15:52.998Z,68.04
2018-02-23T05:16:53.335Z,68.51
2018-02-23T05:17:53.628Z,67.57
2018-02-23T05:18:53.944Z,67.38
2018-02-23T05:19:54.256Z,68.23
2018-02-23T05:20:54.585Z,68.13
2018-02-23T05:21:54.900Z,69.07
2018-02-23T05:22:55.213Z,68.98
2018-02-23T05:23:55.533Z,69.26
2018-02-23T05:24:55.840Z,69.26
2018-02-23T05:25:56.147Z,68.98
2018-02-23T05:26:56.473Z,68.98
2018-02-23T05:27:56.783Z,69.07
2018-02-23T05:28:57.111Z,68.60
2018-02-23T05:29:57.432Z,67.57
2018-02-23T05:30:57.750Z,68.32
2018-02-23T05:31:58.069Z,68.79
2018-02-23T05:32:58.390Z,68.98
2018-02-23T05:33:58.708Z,69.17
2018-02-23T05:34:59.027Z,69.26
2018-02-23T05:35:59.354Z,69.35
2018-02-23T05:36:59.462Z,69.26
2018-02-23T05:37:59.781Z,69.26
2018-02-23T05:39:00.103Z,69.83
2018-02-23T05:40:00.420Z,68.98
2018-02-23T05:41:00.739Z,69.26
2018-02-23T05:42:01.057Z,68.88
2018-02-23T05:43:01.372Z,69.45
2018-02-23T05:44:01.699Z,69.17
2018-02-23T05:45:02.000Z,69.73
2018-02-23T05:46:02.328Z,70.20
2018-02-23T05:47:02.640Z,70.39
2018-02-23T05:48:02.957Z,70.20
2018-02-23T05:49:03.271Z,70.58
2018-02-23T05:50:03.585Z,70.20
2018-02-23T05:51:03.898Z,69.92
2018-02-23T05:52:04.214Z,70.11
2018-02-23T05:53:04.528Z,70.87
2018-02-23T05:54:04.845Z,70.49
2018-02-23T05:55:05.156Z,70.30
2018-02-23T05:56:05.471Z,70.58
2018-02-23T05:57:05.787Z,70.30
2018-02-23T05:58:06.099Z,70.68
2018-02-23T05:59:06.413Z,70.30
2018-02-23T06:00:06.728Z,70.77
2018-02-23T06:01:07.046Z,70.39
2018-02-23T06:02:07.359Z,70.49
2018-02-23T06:03:07.680Z,70.49
2018-02-23T06:04:07.999Z,71.43
2018-02-23T06:05:08.318Z,71.06
2018-02-23T06:06:08.637Z,71.43
2018-02-23T06:07:08.964Z,70.87
2018-02-23T06:08:09.117Z,70.39
2018-02-23T06:09:09.371Z,71.34
2018-02-23T06:10:09.690Z,71.06
2018-02-23T06:11:10.055Z,71.25
2018-02-23T06:12:10.330Z,71.34
2018-02-23T06:13:10.648Z,70.30
2018-02-23T06:14:10.971Z,70.68
2018-02-23T06:15:11.287Z,71.34
2018-02-23T06:16:11.604Z,71.43
2018-02-23T06:17:11.950Z,70.58
2018-02-23T06:18:12.065Z,70.68
2018-02-23T06:19:12.377Z,70.49
2018-02-23T06:20:12.696Z,71.34
2018-02-23T06:21:13.012Z,70.68
2018-02-23T06:22:13.339Z,71.72
2018-02-23T06:23:13.776Z,72.09
2018-02-23T06:24:13.965Z,71.91
2018-02-23T06:25:14.278Z,72.47
2018-02-23T06:26:14.594Z,71.72
2018-02-23T06:27:14.909Z,71.72
2018-02-23T06:28:15.221Z,71.53
2018-02-23T06:29:15.543Z,71.72
2018-02-23T06:30:15.851Z,71.43
2018-02-23T06:31:16.168Z,71.62
2018-02-23T06:32:16.478Z,71.72
2018-02-23T06:33:16.793Z,71.43
2018-02-23T06:34:17.113Z,71.25
2018-02-23T06:35:17.422Z,71.91
2018-02-23T06:36:17.738Z,72.19
2018-02-23T06:37:18.058Z,71.72
2018-02-23T06:38:18.370Z,71.72
2018-02-23T06:39:18.688Z,72.28
2018-02-23T06:40:18.992Z,72.00
2018-02-23T06:41:19.308Z,72.38
2018-02-23T06:42:19.420Z,71.81
2018-02-23T06:43:19.734Z,72.00
2018-02-23T06:44:20.050Z,72.19
2018-02-23T06:45:20.359Z,71.43
2018-02-23T06:46:20.678Z,71.53
2018-02-23T06:47:21.005Z,71.43
2018-02-23T06:48:21.309Z,71.72
2018-02-23T06:49:21.629Z,72.00
2018-02-23T06:50:21.948Z,72.38
2018-02-23T06:51:22.262Z,72.56
2018-02-23T06:52:22.588Z,72.38
2018-02-23T06:53:22.905Z,71.81
2018-02-23T06:54:23.224Z,71.81
2018-02-23T06:55:23.545Z,72.38
2018-02-23T06:56:23.867Z,71.91
2018-02-23T06:57:24.183Z,72.47
2018-02-23T06:58:24.511Z,72.56
2018-02-23T06:59:24.813Z,72.00
2018-02-23T07:00:25.143Z,72.09
2018-02-23T07:01:25.461Z,71.81
2018-02-23T07:02:25.784Z,71.34
2018-02-23T07:03:26.104Z,71.72
2018-02-23T07:04:26.211Z,70.87
2018-02-23T07:05:26.530Z,70.39
2018-02-23T07:06:26.849Z,70.58
2018-02-23T07:07:27.176Z,70.58
2018-02-23T07:08:27.486Z,70.58
2018-02-23T07:09:27.804Z,70.58
2018-02-23T07:10:28.116Z,70.87
2018-02-23T07:11:28.442Z,71.53
2018-02-23T07:12:28.750Z,71.62
2018-02-23T07:13:29.060Z,72.28
2018-02-23T07:14:29.374Z,71.43
2018-02-23T07:15:29.700Z,71.53
2018-02-23T07:16:30.025Z,71.72
2018-02-23T07:17:30.317Z,70.58
2018-02-23T07:18:30.631Z,70.30
2018-02-23T07:19:30.947Z,70.87
2018-02-23T07:20:31.259Z,70.49
2018-02-23T07:21:31.578Z,70.49
2018-02-23T07:22:31.906Z,70.68
2018-02-23T07:23:32.201Z,70.58
2018-02-23T07:24:32.589Z,70.49
2018-02-23T07:25:32.831Z,70.87
2018-02-23T07:26:33.145Z,71.06
2018-02-23T07:27:33.460Z,70.68
2018-02-23T07:28:33.775Z,70.11
2018-02-23T07:29:34.091Z,70.39
2018-02-23T07:30:34.968Z,70.96
2018-02-23T07:31:34.535Z,70.68
2018-02-23T07:32:35.178Z,70.11
2018-02-23T07:33:35.175Z,70.02
2018-02-23T07:34:35.876Z,69.26
2018-02-23T07:35:36.177Z,69.83
2018-02-23T07:36:36.129Z,69.92
2018-02-23T07:37:36.449Z,70.39
2018-02-23T07:38:36.767Z,69.92
2018-02-23T07:39:37.094Z,69.17
2018-02-23T07:40:37.204Z,69.45
2018-02-23T07:41:37.315Z,69.64
2018-02-23T07:42:37.636Z,69.01
2018-02-23T07:43:37.955Z,69.26
2018-02-23T07:44:38.274Z,69.07
2018-02-23T07:45:38.815Z,69.58
2018-02-23T07:46:38.921Z,69.49
2018-02-23T07:47:39.328Z,69.49
2018-02-23T07:48:39.553Z,68.63
2018-02-23T07:49:39.868Z,68.26
2018-02-23T07:50:40.182Z,68.82
2018-02-23T07:51:40.500Z,68.44
2018-02-23T07:52:40.806Z,68.44
2018-02-23T07:53:41.123Z,68.16
2018-02-23T07:54:41.684Z,67.32
2018-02-23T07:55:41.776Z,67.69
2018-02-23T07:56:41.871Z,67.88
2018-02-23T07:57:42.197Z,68.07
2018-02-23T07:58:42.502Z,68.63
2018-02-23T07:59:42.812Z,68.54
2018-02-23T08:00:43.140Z,68.16
2018-02-23T08:01:43.238Z,67.69
2018-02-23T08:02:43.557Z,66.75
2018-02-23T08:03:43.876Z,66.56
2018-02-23T08:04:44.196Z,65.71
2018-02-23T08:05:44.517Z,65.33
2018-02-23T08:06:44.835Z,66.09
2018-02-23T08:07:45.155Z,66.37
2018-02-23T08:08:45.496Z,66.18
2018-02-23T08:09:45.606Z,65.42
2018-02-23T08:10:45.713Z,65.61
2018-02-23T08:11:46.031Z,65.99
2018-02-23T08:12:46.350Z,65.99
2018-02-23T08:13:46.669Z,65.80
2018-02-23T08:14:46.989Z,65.52
2018-02-23T08:15:47.310Z,65.52
2018-02-23T08:16:47.625Z,65.52
2018-02-23T08:17:47.949Z,65.33
2018-02-23T08:18:48.264Z,64.86
2018-02-23T08:19:48.588Z,64.76
2018-02-23T08:20:48.893Z,64.39
2018-02-23T08:21:49.209Z,64.67
2018-02-23T08:22:49.555Z,63.54
2018-02-23T08:23:49.662Z,64.39
2018-02-23T08:24:49.983Z,64.29
2018-02-23T08:25:50.300Z,64.48
2018-02-23T08:26:50.652Z,64.29
2018-02-23T08:27:50.754Z,64.11
2018-02-23T08:28:51.073Z,64.11
2018-02-23T08:29:51.392Z,63.54
2018-02-23T08:30:51.738Z,64.11
2018-02-23T08:31:51.838Z,64.48
2018-02-23T08:32:52.153Z,64.01
2018-02-23T08:33:52.508Z,63.63
2018-02-23T08:34:52.612Z,63.63
2018-02-23T08:35:52.937Z,63.07
2018-02-23T08:36:53.045Z,62.97
2018-02-23T08:37:53.362Z,62.50
2018-02-23T08:38:53.682Z,62.40
2018-02-23T08:39:54.075Z,61.93
2018-02-23T08:40:54.330Z,62.02
2018-02-23T08:41:54.652Z,62.12
2018-02-23T08:42:54.759Z,62.21
2018-02-23T08:43:55.079Z,62.31
2018-02-23T08:44:55.399Z,62.31
2018-02-23T08:45:55.715Z,62.12
2018-02-23T08:46:56.043Z,62.50
2018-02-23T08:47:56.377Z,62.25
2018-02-23T08:48:56.501Z,62.06
2018-02-23T08:49:56.787Z,62.34
2018-02-23T08:50:57.097Z,61.40
2018-02-23T08:51:57.413Z,60.64
2018-02-23T08:52:57.722Z,61.30
2018-02-23T08:53:58.038Z,61.11
2018-02-23T08:54:58.353Z,61.21
2018-02-23T08:55:58.673Z,60.93
2018-02-23T08:56:58.989Z,60.27
2018-02-23T08:57:59.294Z,59.60
2018-02-23T08:58:59.616Z,59.22
2018-02-23T08:59:59.945Z,59.03
2018-02-23T09:01:00.056Z,59.89
2018-02-23T09:02:00.372Z,59.32
2018-02-23T09:03:00.691Z,58.75
2018-02-23T09:04:01.011Z,59.13
2018-02-23T09:05:01.332Z,58.94
2018-02-23T09:06:01.652Z,59.03
2018-02-23T09:07:01.971Z,59.79
2018-02-23T09:08:02.299Z,58.75
2018-02-23T09:09:02.408Z,57.90
2018-02-23T09:10:02.730Z,57.53
2018-02-23T09:11:03.052Z,56.96
2018-02-23T09:12:03.370Z,56.86
2018-02-23T09:13:03.689Z,57.53
2018-02-23T09:14:04.019Z,57.71
2018-02-23T09:15:04.362Z,58.28
2018-02-23T09:16:04.648Z,58.00
2018-02-23T09:17:04.958Z,58.09
2018-02-23T09:18:05.274Z,58.28
2018-02-23T09:19:05.590Z,57.62
2018-02-23T09:20:05.908Z,56.58
2018-02-23T09:21:06.230Z,55.54
2018-02-23T09:22:06.540Z,55.63
2018-02-23T09:23:06.856Z,56.11
2018-02-23T09:24:07.176Z,56.01
2018-02-23T09:25:07.494Z,56.11
2018-02-23T09:26:07.810Z,56.20
2018-02-23T09:27:08.133Z,56.67
2018-02-23T09:28:08.228Z,56.77
2018-02-23T09:29:08.551Z,57.15
2018-02-23T09:30:08.864Z,56.39
2018-02-23T09:31:09.181Z,56.20
2018-02-23T09:32:09.504Z,56.48
2018-02-23T09:33:09.823Z,55.54
2018-02-23T09:34:10.195Z,54.79
2018-02-23T09:35:10.464Z,54.50
2018-02-23T09:36:10.791Z,54.50
2018-02-23T09:37:10.903Z,54.79
2018-02-23T09:38:11.013Z,54.72
2018-02-23T09:39:11.333Z,55.19
2018-02-23T09:40:11.690Z,54.13
2018-02-23T09:41:11.766Z,53.84
2018-02-23T09:42:12.085Z,53.65
2018-02-23T09:43:12.418Z,53.94
2018-02-23T09:44:12.731Z,53.68
2018-02-23T09:45:13.044Z,53.94
2018-02-23T09:46:13.361Z,53.68
2018-02-23T09:47:13.681Z,54.34
2018-02-23T09:48:13.986Z,54.72
2018-02-23T09:49:14.376Z,54.53
2018-02-23T09:50:14.440Z,53.68
2018-02-23T09:51:14.743Z,53.58
2018-02-23T09:52:15.067Z,53.58
2018-02-23T09:53:15.385Z,53.20
2018-02-23T09:54:15.705Z,53.30
2018-02-23T09:55:16.027Z,54.06
2018-02-23T09:56:16.347Z,53.96
2018-02-23T09:57:16.675Z,53.30
2018-02-23T09:58:16.784Z,53.02
2018-02-23T09:59:16.897Z,51.88
2018-02-23T10:00:17.212Z,51.41
2018-02-23T10:01:17.539Z,51.50
2018-02-23T10:02:17.849Z,51.41
2018-02-23T10:03:18.166Z,51.60
2018-02-23T10:04:18.494Z,51.13
2018-02-23T10:05:18.816Z,51.03
2018-02-23T10:06:19.134Z,50.46
2018-02-23T10:07:19.450Z,49.80
2018-02-23T10:08:19.763Z,49.90
2018-02-23T10:09:20.075Z,50.09
2018-02-23T10:10:20.394Z,50.37
2018-02-23T10:11:20.705Z,49.80
2018-02-23T10:12:21.032Z,49.90
2018-02-23T10:13:21.338Z,48.67
2018-02-23T10:14:21.654Z,48.01
2018-02-23T10:15:21.970Z,47.72
2018-02-23T10:16:22.280Z,48.76
2018-02-23T10:17:22.597Z,48.76
2018-02-23T10:18:22.911Z,48.48
2018-02-23T10:19:23.027Z,47.82
2018-02-23T10:20:23.347Z,47.91
2018-02-23T10:21:23.667Z,47.63
2018-02-23T10:22:23.985Z,47.63
2018-02-23T10:23:24.308Z,46.69
2018-02-23T10:24:24.629Z,47.06
2018-02-23T10:25:24.949Z,47.06
2018-02-23T10:26:25.279Z,47.25
2018-02-23T10:27:25.394Z,46.78
2018-02-23T10:28:25.505Z,46.97
2018-02-23T10:29:25.850Z,47.16
2018-02-23T10:30:25.950Z,47.34
2018-02-23T10:31:26.448Z,47.72
2018-02-23T10:32:26.566Z,47.47
2018-02-23T10:33:26.675Z,47.28
2018-02-23T10:34:26.987Z,46.80
2018-02-23T10:35:27.315Z,46.14
2018-02-23T10:36:27.420Z,45.20
2018-02-23T10:37:27.740Z,45.20
2018-02-23T10:38:28.066Z,45.29
2018-02-23T10:39:28.383Z,45.57
2018-02-23T10:40:28.704Z,44.91
2018-02-23T10:41:29.011Z,44.53
2018-02-23T10:42:29.365Z,44.82
2018-02-23T10:43:29.639Z,45.10
2018-02-23T10:44:29.957Z,44.91
2018-02-23T10:45:30.279Z,44.44
2018-02-23T10:46:30.592Z,44.72
2018-02-23T10:47:30.921Z,45.39
2018-02-23T10:48:31.242Z,45.76
2018-02-23T10:49:31.562Z,45.20
2018-02-23T10:50:31.885Z,45.29
2018-02-23T10:51:32.202Z,45.48
2018-02-23T10:52:32.534Z,44.91
2018-02-23T10:53:32.645Z,45.48
2018-02-23T10:54:32.966Z,45.95
2018-02-23T10:55:33.287Z,46.52
2018-02-23T10:56:33.608Z,46.23
2018-02-23T10:57:33.938Z,46.99
2018-02-23T10:58:34.255Z,46.23
2018-02-23T10:59:34.563Z,46.04
2018-02-23T11:00:34.903Z,46.14
2018-02-23T11:01:35.192Z,45.20
2018-02-23T11:02:35.511Z,45.39
2018-02-23T11:03:35.822Z,44.63
2018-02-23T11:04:36.144Z,44.06
2018-02-23T11:05:36.463Z,44.53
2018-02-23T11:06:36.776Z,43.40
2018-02-23T11:07:37.088Z,43.02
2018-02-23T11:08:37.218Z,42.64
2018-02-23T11:09:37.507Z,41.98
2018-02-23T11:10:37.836Z,41.89
2018-02-23T11:11:38.172Z,41.41
2018-02-23T11:12:38.461Z,41.79
2018-02-23T11:13:38.782Z,41.41
2018-02-23T11:14:39.103Z,41.60
2018-02-23T11:15:39.422Z,41.22
2018-02-23T11:16:39.746Z,41.70
2018-02-23T11:17:40.064Z,41.60
2018-02-23T11:18:40.385Z,41.70
2018-02-23T11:19:40.718Z,41.41
2018-02-23T11:20:40.828Z,41.79
2018-02-23T11:21:41.178Z,41.41
2018-02-23T11:22:41.290Z,40.47
2018-02-23T11:23:41.398Z,39.90
2018-02-23T11:24:41.712Z,39.81
2018-02-23T11:25:41.828Z,40.09
2018-02-23T11:26:42.166Z,41.32
2018-02-23T11:27:42.272Z,41.41
2018-02-23T11:28:42.593Z,41.89
2018-02-23T11:29:42.914Z,42.74
2018-02-23T11:30:43.234Z,43.02
2018-02-23T11:31:43.562Z,42.93
2018-02-23T11:32:43.883Z,42.38
2018-02-23T11:33:44.204Z,42.19
2018-02-23T11:34:44.526Z,42.66
2018-02-23T11:35:44.841Z,42.57
2018-02-23T11:36:45.177Z,41.72
2018-02-23T11:37:45.484Z,42.27
2018-02-23T11:38:45.799Z,42.74
2018-02-23T11:39:46.116Z,43.49
2018-02-23T11:40:46.430Z,43.68
2018-02-23T11:41:46.745Z,44.46
2018-02-23T11:42:47.075Z,44.18
2018-02-23T11:43:47.376Z,43.52
2018-02-23T11:44:47.691Z,43.33
2018-02-23T11:45:48.016Z,43.23
2018-02-23T11:46:48.126Z,43.04
2018-02-23T11:47:48.446Z,42.85
2018-02-23T11:48:48.775Z,42.29
2018-02-23T11:49:49.073Z,42.57
2018-02-23T11:50:49.392Z,42.10
2018-02-23T11:51:49.713Z,41.44
2018-02-23T11:52:50.034Z,40.87
2018-02-23T11:53:50.356Z,40.77
2018-02-23T11:54:50.677Z,40.39
2018-02-23T11:55:51.011Z,41.63
2018-02-23T11:57:12.104Z,41.44
2018-02-23T11:57:51.405Z,40.87
2018-02-23T11:58:51.686Z,40.58
2018-02-23T11:59:52.006Z,40.49
2018-02-23T12:00:52.377Z,40.11
2018-02-23T12:01:52.645Z,40.20
2018-02-23T12:03:07.489Z,40.11
2018-02-23T12:03:53.124Z,39.54
2018-02-23T12:04:53.442Z,39.26
2018-02-23T12:05:53.762Z,39.92
2018-02-23T12:06:54.113Z,40.30
2018-02-23T12:07:54.413Z,39.36
2018-02-23T12:08:54.720Z,39.07
2018-02-23T12:09:55.037Z,38.88
2018-02-23T12:10:55.151Z,38.41
2018-02-23T12:11:55.472Z,38.50
2018-02-23T12:12:55.794Z,37.93
2018-02-23T12:13:56.115Z,39.17
2018-02-23T12:14:56.437Z,39.26
2018-02-23T12:15:56.759Z,38.88
2018-02-23T12:16:57.079Z,38.69
2018-02-23T12:17:57.409Z,38.79
2018-02-23T12:18:57.515Z,38.88
2018-02-23T12:19:57.856Z,39.83
2018-02-23T12:20:57.961Z,39.45
2018-02-23T12:21:58.291Z,39.92
2018-02-23T12:22:58.605Z,38.41
2018-02-23T12:23:58.922Z,37.55
2018-02-23T12:24:59.245Z,37.74
2018-02-23T12:25:59.567Z,38.69
2018-02-23T12:26:59.865Z,38.22
2018-02-23T12:28:00.182Z,38.50
2018-02-23T12:29:00.492Z,38.69
2018-02-23T12:30:00.813Z,38.69
2018-02-23T12:31:01.137Z,38.22
2018-02-23T12:32:01.477Z,38.50
2018-02-23T12:33:01.561Z,38.41
2018-02-23T12:34:01.905Z,39.07
2018-02-23T12:35:02.198Z,38.88
2018-02-23T12:36:02.523Z,39.54
2018-02-23T12:37:02.844Z,40.01
2018-02-23T12:38:03.168Z,39.92
2018-02-23T12:39:03.506Z,39.26
2018-02-23T12:40:03.617Z,39.83
2018-02-23T12:41:03.938Z,40.96
2018-02-23T12:42:04.254Z,40.58
2018-02-23T12:43:04.576Z,39.54
2018-02-23T12:44:04.899Z,39.73
2018-02-23T12:45:05.214Z,38.98
2018-02-23T12:46:05.536Z,38.50
2018-02-23T12:47:05.844Z,37.46
2018-02-23T12:48:06.168Z,37.27
2018-02-23T12:49:06.492Z,37.37
2018-02-23T12:50:06.812Z,37.84
2018-02-23T12:51:07.133Z,38.12
2018-02-23T12:52:07.455Z,38.79
2018-02-23T12:53:07.783Z,38.71
2018-02-23T12:54:08.113Z,38.43
2018-02-23T12:55:08.424Z,38.52
2018-02-23T12:56:08.539Z,37.93